createdAt,value
2023-05-16T00:00:04.454Z,27.70
2023-05-16T00:02:51.694Z,27.98
2023-05-16T00:05:32.480Z,27.05
2023-05-16T00:08:29.487Z,26.77
2023-05-16T00:11:16.471Z,28.33
2023-05-16T00:13:56.470Z,23.50
2023-05-16T00:16:43.479Z,24.95
2023-05-16T00:19:16.747Z,24.42
2023-05-16T00:22:03.475Z,24.10
2023-05-16T00:24:36.608Z,24.70
2023-05-16T00:27:23.455Z,24.50
2023-05-16T00:29:56.616Z,24.23
2023-05-16T00:32:45.536Z,23.98
2023-05-16T00:35:18.632Z,26.55
2023-05-16T00:38:08.482Z,26.67
2023-05-16T00:40:48.472Z,26.88
2023-05-16T00:43:46.481Z,25.45
2023-05-16T00:46:34.663Z,26.30
2023-05-16T00:49:08.664Z,28.33
2023-05-16T00:51:58.516Z,27.60
2023-05-16T00:54:33.633Z,28.20
2023-05-16T00:57:20.490Z,27.10
2023-05-16T01:00:01.489Z,27.88
2023-05-16T01:02:48.561Z,27.90
2023-05-16T01:05:21.629Z,28.40
2023-05-16T01:08:08.491Z,28.73
2023-05-16T01:10:59.104Z,27.42
2023-05-16T01:14:03.544Z,29.05
2023-05-16T01:16:54.883Z,27.73
2023-05-16T01:20:06.515Z,28.15
2023-05-16T01:22:54.521Z,29.05
2023-05-16T01:25:38.653Z,30.52
2023-05-16T01:28:25.537Z,30.60
2023-05-16T01:30:58.615Z,31.88
2023-05-16T01:33:45.560Z,28.45
2023-05-16T01:36:30.649Z,28.90
2023-05-16T01:39:45.474Z,30.55
2023-05-16T01:42:46.501Z,30.90
2023-05-16T01:45:38.487Z,30.98
2023-05-16T01:48:22.497Z,30.80
2023-05-16T01:51:17.536Z,32.20
2023-05-16T01:54:11.473Z,38.25
2023-05-16T01:56:45.652Z,33.10
2023-05-16T01:59:33.536Z,40.13
2023-05-16T02:02:06.690Z,34.95
2023-05-16T02:04:53.536Z,33.30
2023-05-16T02:07:27.641Z,32.75
2023-05-16T02:10:15.553Z,34.70
2023-05-16T02:12:48.673Z,54.25
2023-05-16T02:15:35.555Z,33.72
2023-05-16T02:18:09.493Z,34.42
2023-05-16T02:20:57.578Z,34.97
2023-05-16T02:23:30.756Z,32.15
2023-05-16T02:26:17.539Z,31.38
2023-05-16T02:28:57.546Z,35.35
2023-05-16T02:31:51.543Z,31.75
2023-05-16T02:34:38.589Z,29.85
2023-05-16T02:37:13.369Z,30.80
2023-05-16T02:40:07.543Z,31.95
2023-05-16T02:43:01.541Z,31.05
2023-05-16T02:45:48.643Z,31.92
2023-05-16T02:48:28.561Z,30.33
2023-05-16T02:51:15.555Z,29.48
2023-05-16T02:53:48.658Z,28.75
2023-05-16T02:56:35.545Z,29.58
2023-05-16T02:59:15.550Z,28.45
2023-05-16T03:02:02.703Z,32.97
2023-05-16T03:04:43.549Z,27.35
2023-05-16T03:07:37.548Z,26.83
2023-05-16T03:10:24.568Z,27.73
2023-05-16T03:13:04.578Z,28.30
2023-05-16T03:15:59.578Z,27.55
2023-05-16T03:18:53.618Z,27.80
2023-05-16T03:21:40.545Z,28.38
2023-05-16T03:24:14.766Z,27.70
2023-05-16T03:27:01.553Z,28.13
2023-05-16T03:29:35.175Z,27.23
2023-05-16T03:32:21.617Z,27.67
2023-05-16T03:34:54.643Z,28.17
2023-05-16T03:37:41.578Z,26.40
2023-05-16T03:40:22.571Z,26.92
2023-05-16T03:43:09.542Z,26.48
2023-05-16T03:45:49.652Z,26.00
2023-05-16T03:48:43.552Z,25.55
2023-05-16T03:51:30.559Z,24.05
2023-05-16T03:54:06.288Z,24.10
2023-05-16T03:56:52.568Z,23.52
2023-05-16T03:59:25.708Z,28.42
2023-05-16T04:02:13.589Z,24.33
2023-05-16T04:04:46.838Z,25.63
2023-05-16T04:07:33.555Z,23.70
2023-05-16T04:10:06.735Z,26.52
2023-05-16T04:12:53.569Z,22.65
2023-05-16T04:15:26.814Z,22.08
2023-05-16T04:18:13.665Z,22.42
2023-05-16T04:20:50.205Z,22.00
2023-05-16T04:23:36.580Z,21.60
2023-05-16T04:26:09.855Z,21.20
2023-05-16T04:28:56.574Z,20.80
2023-05-16T04:31:37.861Z,19.35
2023-05-16T04:34:34.567Z,19.42
2023-05-16T04:37:21.600Z,23.25
2023-05-16T04:39:54.878Z,31.17
2023-05-16T04:42:41.610Z,25.35
2023-05-16T04:45:14.734Z,47.42
2023-05-16T04:48:01.623Z,20.30
2023-05-16T04:50:41.610Z,25.73
2023-05-16T04:53:31.667Z,21.35
2023-05-16T04:56:13.995Z,21.55
2023-05-16T04:59:03.920Z,19.52
2023-05-16T05:01:44.714Z,19.50
2023-05-16T05:04:38.703Z,19.50
2023-05-16T05:07:25.605Z,20.13
2023-05-16T05:09:58.811Z,19.02
2023-05-16T05:12:45.591Z,17.55
2023-05-16T05:15:19.256Z,19.20
2023-05-16T05:18:05.776Z,19.75
2023-05-16T05:20:38.779Z,17.55
2023-05-16T05:23:26.648Z,17.42
2023-05-16T05:26:06.646Z,17.20
2023-05-16T05:29:05.164Z,14.88
2023-05-16T05:31:59.627Z,17.02
2023-05-16T05:34:46.644Z,16.90
2023-05-16T05:37:27.611Z,16.00
2023-05-16T05:40:21.603Z,19.05
2023-05-16T05:43:15.638Z,19.40
2023-05-16T05:46:02.674Z,18.53
2023-05-16T05:48:35.744Z,15.77
2023-05-16T05:51:22.648Z,18.77
2023-05-16T05:53:56.115Z,23.70
2023-05-16T05:56:42.646Z,22.73
2023-05-16T05:59:18.655Z,17.95
2023-05-16T06:02:05.753Z,23.88
2023-05-16T06:04:38.882Z,27.13
2023-05-16T06:07:25.677Z,27.30
2023-05-16T06:09:59.609Z,28.45
2023-05-16T06:12:46.644Z,24.95
2023-05-16T06:15:26.857Z,23.67
2023-05-16T06:18:20.650Z,24.33
2023-05-16T06:21:07.679Z,16.30
2023-05-16T06:23:40.893Z,15.50
2023-05-16T06:26:29.747Z,18.15
2023-05-16T06:29:02.776Z,17.85
2023-05-16T06:31:49.711Z,16.05
2023-05-16T06:34:34.662Z,14.70
2023-05-16T06:37:21.674Z,14.32
2023-05-16T06:40:01.707Z,15.15
2023-05-16T06:42:55.720Z,15.45
2023-05-16T06:45:49.752Z,16.00
2023-05-16T06:48:37.840Z,17.58
2023-05-16T06:51:12.013Z,17.23
2023-05-16T06:53:58.685Z,17.60
2023-05-16T06:56:31.836Z,17.25
2023-05-16T06:59:18.750Z,15.85
2023-05-16T07:01:51.911Z,13.98
2023-05-16T07:04:38.747Z,17.73
2023-05-16T07:07:11.877Z,27.83
2023-05-16T07:09:58.747Z,17.40
2023-05-16T07:12:31.864Z,16.50
2023-05-16T07:15:18.747Z,15.75
2023-05-16T07:17:51.976Z,13.93
2023-05-16T07:20:38.743Z,15.70
2023-05-16T07:23:11.878Z,16.25
2023-05-16T07:25:59.774Z,16.92
2023-05-16T07:28:35.198Z,15.57
2023-05-16T07:31:21.877Z,15.05
2023-05-16T07:33:54.813Z,15.07
2023-05-16T07:36:41.724Z,14.45
2023-05-16T07:39:21.776Z,15.15
2023-05-16T07:42:15.816Z,53.75
2023-05-16T07:45:03.762Z,14.00
2023-05-16T07:47:44.786Z,13.80
2023-05-16T07:50:34.675Z,15.43
2023-05-16T07:53:14.745Z,12.70
2023-05-16T07:56:01.771Z,13.18
2023-05-16T07:58:35.895Z,12.00
2023-05-16T08:01:23.792Z,12.85
2023-05-16T08:03:59.184Z,12.70
2023-05-16T08:06:45.788Z,15.10
2023-05-16T08:09:25.766Z,13.45
2023-05-16T08:12:19.926Z,14.85
2023-05-16T08:15:06.745Z,15.85
2023-05-16T08:17:40.005Z,16.05
2023-05-16T08:20:26.783Z,16.00
2023-05-16T08:23:01.114Z,18.02
2023-05-16T08:25:47.769Z,15.45
2023-05-16T08:28:27.760Z,14.98
2023-05-16T08:31:14.830Z,20.15
2023-05-16T08:33:47.851Z,13.52
2023-05-16T08:36:34.795Z,14.07
2023-05-16T08:39:11.551Z,13.93
2023-05-16T08:42:05.776Z,15.40
2023-05-16T08:44:52.789Z,12.82
2023-05-16T08:47:26.963Z,11.60
2023-05-16T08:50:16.787Z,16.15
2023-05-16T08:52:50.879Z,17.13
2023-05-16T08:55:37.776Z,16.80
2023-05-16T08:58:10.889Z,13.82
2023-05-16T09:00:57.821Z,14.40
2023-05-16T09:03:31.985Z,18.05
2023-05-16T09:06:18.793Z,15.13
2023-05-16T09:08:52.907Z,14.60
2023-05-16T09:11:39.850Z,15.27
2023-05-16T09:14:12.980Z,16.60
2023-05-16T09:17:12.851Z,17.25
2023-05-16T09:19:48.671Z,14.63
2023-05-16T09:22:35.856Z,15.00
2023-05-16T09:25:28.453Z,17.52
2023-05-16T09:28:25.782Z,17.10
2023-05-16T09:31:27.054Z,16.35
2023-05-16T09:34:02.905Z,17.38
2023-05-16T09:36:50.798Z,14.75
2023-05-16T09:39:23.948Z,16.67
2023-05-16T09:42:20.794Z,17.00
2023-05-16T09:45:07.849Z,14.63
2023-05-16T09:47:52.839Z,14.75
2023-05-16T09:50:44.800Z,15.70
2023-05-16T09:53:20.910Z,14.10
2023-05-16T09:56:08.816Z,14.73
2023-05-16T09:58:44.888Z,14.02
2023-05-16T10:01:31.986Z,14.73
2023-05-16T10:04:05.094Z,13.95
2023-05-16T10:06:52.823Z,15.10
2023-05-16T10:09:34.793Z,15.73
2023-05-16T10:12:22.805Z,15.43
2023-05-16T10:15:03.835Z,14.00
2023-05-16T10:18:02.030Z,13.98
2023-05-16T10:20:51.837Z,13.75
2023-05-16T10:23:44.816Z,14.40
2023-05-16T10:26:32.809Z,13.13
2023-05-16T10:29:07.928Z,15.40
2023-05-16T10:31:57.018Z,14.15
2023-05-16T10:34:37.822Z,15.73
2023-05-16T10:37:24.819Z,15.10
2023-05-16T10:40:05.871Z,22.90
2023-05-16T10:43:13.861Z,17.05
2023-05-16T10:46:02.848Z,16.63
2023-05-16T10:48:39.040Z,14.73
2023-05-16T10:51:45.848Z,13.68
2023-05-16T10:54:28.881Z,14.88
2023-05-16T10:57:24.811Z,19.50
2023-05-16T11:00:11.878Z,15.25
2023-05-16T11:02:58.945Z,15.65
2023-05-16T11:05:40.809Z,16.58
2023-05-16T11:08:27.838Z,15.45
2023-05-16T11:11:49.119Z,18.70
2023-05-16T11:14:45.879Z,14.90
2023-05-16T11:17:33.865Z,14.25
2023-05-16T11:20:06.949Z,13.43
2023-05-16T11:22:53.847Z,13.98
2023-05-16T11:25:43.343Z,15.50
2023-05-16T11:28:35.022Z,14.07
2023-05-16T11:31:07.942Z,13.50
2023-05-16T11:33:54.891Z,13.07
2023-05-16T11:36:31.040Z,15.25
2023-05-16T11:39:18.982Z,15.45
2023-05-16T11:41:52.049Z,14.23
2023-05-16T11:44:41.251Z,13.77
2023-05-16T11:47:14.974Z,15.70
2023-05-16T11:50:06.913Z,13.82
2023-05-16T11:52:39.965Z,14.18
2023-05-16T11:58:19.872Z,15.10
2023-05-16T12:01:14.893Z,15.38
2023-05-16T12:04:05.084Z,15.50
2023-05-16T12:06:38.978Z,15.52
2023-05-16T12:09:26.091Z,15.15
2023-05-16T12:11:59.023Z,16.17
2023-05-16T12:14:46.260Z,16.85
2023-05-16T12:17:22.254Z,16.40
2023-05-16T12:20:12.174Z,16.77
2023-05-16T12:22:51.977Z,15.75
2023-05-16T12:25:39.884Z,15.85
2023-05-16T12:28:19.890Z,14.05
2023-05-16T12:31:11.217Z,15.30
2023-05-16T12:33:58.920Z,17.25
2023-05-16T12:36:52.916Z,18.70
2023-05-16T12:39:43.892Z,17.05
2023-05-16T12:42:19.172Z,17.10
2023-05-16T12:45:05.886Z,15.98
2023-05-16T12:47:45.068Z,16.23
2023-05-16T12:50:32.882Z,18.30
2023-05-16T12:53:14.927Z,17.83
2023-05-16T12:56:01.885Z,17.70
2023-05-16T12:58:37.499Z,17.55
2023-05-16T13:01:23.933Z,20.83
2023-05-16T13:03:57.103Z,24.85
2023-05-16T13:06:58.279Z,22.17
2023-05-16T13:09:38.901Z,17.05
2023-05-16T13:12:33.905Z,16.23
2023-05-16T13:15:21.909Z,18.83
2023-05-16T13:17:55.096Z,18.73
2023-05-16T13:20:41.912Z,19.55
2023-05-16T13:23:15.088Z,18.13
2023-05-16T13:26:01.907Z,15.88
2023-05-16T13:28:49.906Z,15.23
2023-05-16T13:31:36.952Z,15.10
2023-05-16T13:34:16.911Z,16.20
2023-05-16T13:37:03.955Z,17.27
2023-05-16T13:39:37.184Z,16.30
2023-05-16T13:42:23.934Z,16.25
2023-05-16T13:44:57.016Z,15.07
2023-05-16T13:47:47.384Z,15.15
2023-05-16T13:50:33.391Z,14.25
2023-05-16T13:53:27.950Z,16.10
2023-05-16T13:56:21.952Z,14.93
2023-05-16T13:59:23.689Z,15.57
2023-05-16T14:02:18.983Z,16.58
2023-05-16T14:04:52.032Z,18.38
2023-05-16T14:07:38.924Z,17.58
2023-05-16T14:10:19.938Z,16.30
2023-05-16T14:13:13.928Z,17.40
2023-05-16T14:16:00.976Z,16.88
2023-05-16T14:18:34.038Z,18.10
2023-05-16T14:21:20.934Z,17.17
2023-05-16T14:24:00.960Z,16.90
2023-05-16T14:26:47.955Z,18.20
2023-05-16T14:29:21.133Z,15.68
2023-05-16T14:32:07.961Z,17.52
2023-05-16T14:34:41.196Z,18.42
2023-05-16T14:37:27.959Z,17.38
2023-05-16T14:40:01.068Z,17.27
2023-05-16T14:42:47.956Z,17.80
2023-05-16T14:45:28.171Z,18.92
2023-05-16T14:48:22.109Z,19.77
2023-05-16T14:51:15.950Z,17.90
2023-05-16T14:54:02.980Z,17.08
2023-05-16T14:56:36.203Z,16.75
2023-05-16T14:59:22.977Z,19.58
2023-05-16T15:01:56.114Z,19.58
2023-05-16T15:04:42.991Z,19.35
2023-05-16T15:07:22.992Z,18.92
2023-05-16T15:10:16.960Z,18.38
2023-05-16T15:13:03.959Z,17.20
2023-05-16T15:15:44.985Z,17.45
2023-05-16T15:18:39.048Z,19.60
2023-05-16T15:21:25.962Z,18.48
2023-05-16T15:23:59.116Z,18.08
2023-05-16T15:26:45.988Z,16.60
2023-05-16T15:29:26.976Z,18.60
2023-05-16T15:32:21.016Z,19.73
2023-05-16T15:35:14.982Z,19.88
2023-05-16T15:38:03.035Z,20.95
2023-05-16T15:40:42.978Z,22.13
2023-05-16T15:43:29.981Z,21.98
2023-05-16T15:46:03.177Z,20.08
2023-05-16T15:48:50.975Z,19.83
2023-05-16T15:51:31.010Z,21.83
2023-05-16T15:54:25.016Z,20.10
2023-05-16T15:57:19.002Z,21.10
2023-05-16T16:00:13.028Z,21.02
2023-05-16T16:03:07.155Z,20.83
2023-05-16T16:06:01.034Z,21.25
2023-05-16T16:08:48.046Z,21.30
2023-05-16T16:11:23.461Z,21.45
2023-05-16T16:14:11.140Z,22.02
2023-05-16T16:16:44.203Z,20.85
2023-05-16T16:19:33.077Z,22.65
2023-05-16T16:22:06.465Z,20.38
2023-05-16T16:24:52.985Z,21.60
2023-05-16T16:27:26.292Z,21.30
2023-05-16T16:30:13.995Z,21.88
2023-05-16T16:32:55.294Z,21.60
2023-05-16T16:35:41.982Z,23.35
2023-05-16T16:38:22.004Z,22.05
2023-05-16T16:41:09.022Z,22.73
2023-05-16T16:43:51.002Z,23.40
2023-05-16T16:46:45.072Z,22.15
2023-05-16T16:49:32.007Z,20.15
2023-05-16T16:52:12.022Z,20.58
2023-05-16T16:55:06.023Z,22.70
2023-05-16T16:58:00.055Z,22.85
2023-05-16T17:00:54.052Z,21.70
2023-05-16T17:03:41.025Z,23.75
2023-05-16T17:06:21.021Z,22.75
2023-05-16T17:09:20.023Z,23.10
2023-05-16T17:12:15.174Z,23.50
2023-05-16T17:15:04.008Z,22.13
2023-05-16T17:17:38.168Z,24.98
2023-05-16T17:20:25.028Z,26.35
2023-05-16T17:23:05.025Z,23.83
2023-05-16T17:25:52.037Z,24.48
2023-05-16T17:28:32.026Z,24.70
2023-05-16T17:31:19.124Z,25.25
2023-05-16T17:34:00.064Z,23.63
2023-05-16T17:36:54.034Z,25.02
2023-05-16T17:39:41.157Z,24.60
2023-05-16T17:42:21.038Z,22.27
2023-05-16T17:45:11.047Z,23.30
2023-05-16T17:47:51.198Z,24.05
2023-05-16T17:50:39.042Z,22.98
2023-05-16T17:53:19.155Z,26.17
2023-05-16T17:56:13.026Z,25.92
2023-05-16T17:59:00.043Z,26.90
2023-05-16T18:01:33.144Z,26.50
2023-05-16T18:04:21.067Z,27.20
2023-05-16T18:06:54.530Z,26.40
2023-05-16T18:09:34.065Z,25.85
2023-05-16T18:12:14.303Z,26.38
2023-05-16T18:14:54.052Z,25.75
2023-05-16T18:17:34.630Z,26.67
2023-05-16T18:20:18.083Z,27.02
2023-05-16T18:22:59.080Z,28.15
2023-05-16T18:25:32.262Z,25.92
2023-05-16T18:28:19.051Z,27.92
2023-05-16T18:30:52.203Z,26.67
2023-05-16T18:33:39.097Z,28.42
2023-05-16T18:36:19.089Z,25.70
2023-05-16T18:39:14.064Z,27.40
2023-05-16T18:42:08.084Z,25.25
2023-05-16T18:45:02.066Z,25.45
2023-05-16T18:47:49.124Z,27.25
2023-05-16T18:50:29.122Z,26.90
2023-05-16T18:53:23.089Z,28.20
2023-05-16T18:56:10.074Z,27.88
2023-05-16T18:58:50.073Z,29.27
2023-05-16T19:01:38.096Z,28.40
2023-05-16T19:04:11.255Z,28.55
2023-05-16T19:07:04.133Z,29.95
2023-05-16T19:09:38.174Z,28.85
2023-05-16T19:12:25.071Z,27.52
2023-05-16T19:15:05.128Z,26.52
2023-05-16T19:17:52.180Z,30.15
2023-05-16T19:20:25.213Z,30.55
2023-05-16T19:23:12.112Z,29.33
2023-05-16T19:25:56.236Z,28.90
2023-05-16T19:28:44.091Z,28.23
2023-05-16T19:31:24.100Z,28.58
2023-05-16T19:34:12.150Z,30.08
2023-05-16T19:36:45.196Z,27.70
2023-05-16T19:39:35.172Z,28.67
2023-05-16T19:42:09.427Z,30.15
2023-05-16T19:44:56.087Z,29.55
2023-05-16T19:47:29.279Z,27.85
2023-05-16T19:50:17.098Z,27.45
2023-05-16T19:52:50.254Z,30.08
2023-05-16T19:55:38.269Z,29.25
2023-05-16T19:58:12.240Z,28.77
2023-05-16T20:00:59.148Z,29.00
2023-05-16T20:03:32.645Z,29.90
2023-05-16T20:06:19.093Z,29.50
2023-05-16T20:08:59.138Z,28.77
2023-05-16T20:11:53.128Z,27.27
2023-05-16T20:14:47.133Z,27.95
2023-05-16T20:17:37.144Z,28.80
2023-05-16T20:20:11.329Z,31.33
2023-05-16T20:22:58.118Z,30.13
2023-05-16T20:25:32.210Z,30.40
2023-05-16T20:28:19.127Z,29.52
2023-05-16T20:30:52.212Z,28.38
2023-05-16T20:33:39.191Z,29.10
2023-05-16T20:36:12.237Z,30.20
2023-05-16T20:38:59.094Z,29.98
2023-05-16T20:41:32.285Z,29.52
2023-05-16T20:44:26.148Z,32.50
2023-05-16T20:47:21.146Z,32.53
2023-05-16T20:50:08.116Z,32.65
2023-05-16T20:52:48.138Z,31.38
2023-05-16T20:55:35.133Z,32.15
2023-05-16T20:58:08.250Z,31.52
2023-05-16T21:00:55.133Z,31.17
2023-05-16T21:03:28.221Z,29.55
2023-05-16T21:06:15.198Z,31.40
2023-05-16T21:08:55.150Z,32.10
2023-05-16T21:11:49.163Z,31.48
2023-05-16T21:14:43.153Z,31.75
2023-05-16T21:17:30.140Z,31.13
2023-05-16T21:20:10.179Z,29.50
2023-05-16T21:22:57.133Z,30.55
2023-05-16T21:25:37.160Z,32.33
2023-05-16T21:28:32.753Z,33.60
2023-05-16T21:31:28.159Z,31.88
2023-05-16T21:34:16.143Z,30.65
2023-05-16T21:36:49.271Z,32.03
2023-05-16T21:39:36.174Z,31.60
2023-05-16T21:42:16.156Z,31.45
2023-05-16T21:45:10.181Z,29.35
2023-05-16T21:47:57.361Z,29.80
2023-05-16T21:50:37.164Z,32.00
2023-05-16T21:53:32.160Z,31.23
2023-05-16T21:56:26.160Z,31.80
2023-05-16T21:59:20.168Z,31.33
2023-05-16T22:02:15.169Z,30.17
2023-05-16T22:05:02.234Z,30.48
2023-05-16T22:07:36.280Z,29.92
2023-05-16T22:10:23.198Z,31.27
2023-05-16T22:13:03.160Z,28.80
2023-05-16T22:16:04.497Z,31.42
2023-05-16T22:18:59.280Z,31.88
2023-05-16T22:21:53.214Z,32.45
2023-05-16T22:24:47.204Z,33.83
2023-05-16T22:27:34.167Z,33.53
2023-05-16T22:30:08.298Z,33.45
2023-05-16T22:32:55.284Z,31.52
2023-05-16T22:35:31.912Z,31.73
2023-05-16T22:38:18.206Z,32.67
2023-05-16T22:40:51.300Z,31.10
2023-05-16T22:43:38.206Z,32.70
2023-05-16T22:46:12.310Z,33.92
2023-05-16T22:48:59.217Z,31.92
2023-05-16T22:51:39.236Z,30.38
2023-05-16T22:54:33.194Z,33.33
2023-05-16T22:57:20.207Z,32.78
2023-05-16T22:59:53.408Z,32.58
2023-05-16T23:02:40.268Z,32.65
2023-05-16T23:05:14.294Z,32.00
2023-05-16T23:08:01.177Z,30.98
2023-05-16T23:10:41.219Z,30.83
2023-05-16T23:13:35.220Z,30.13
2023-05-16T23:16:22.223Z,30.75
2023-05-16T23:19:02.394Z,30.88
2023-05-16T23:21:56.223Z,32.65
2023-05-16T23:24:43.222Z,32.13
2023-05-16T23:27:16.307Z,32.05
2023-05-16T23:30:03.202Z,31.42
2023-05-16T23:32:36.612Z,32.70
2023-05-16T23:35:23.257Z,33.15
2023-05-16T23:37:56.330Z,32.83
2023-05-16T23:40:43.210Z,34.88
2023-05-16T23:43:16.404Z,33.80
2023-05-16T23:46:03.257Z,33.67
2023-05-16T23:48:36.643Z,35.60
2023-05-16T23:51:23.242Z,34.67
2023-05-16T23:53:56.352Z,35.80
2023-05-16T23:56:43.230Z,35.55
2023-05-16T23:59:16.522Z,35.03
